OIAM 
Mahshahr Airport
Iran 
ICAOIATAStatus
OIAMMRXOperational
LatitudeLongitude
30° 33' 22" N49° 9' 6" E
30.55620049.151901
Local Time (DST+5)UTC (GMT+4)
04-17-2014 08:09 pm04-17-2014 15:39
Sunrise-SunsetLocalUTC
Begin Civil Twilight06:17 am01:47
Sunrise06:42 am02:12
Sunset07:43 pm15:13
End Civil Twilight08:08 pm15:38

Current Weather

METARObservedFlight Conditions

OIAM 171500Z 33010KT CAVOK 36/11 Q1007

Thu, Apr 17, 2014 @ 15:00 UTC(Z)

(39 Minutes ago)

VFR

(Visual Flight Rules)

WindVisibilityCloudsConditions
330° at 10 knots (19 kph)
10 km or more
  • Clear skies
  • No significant weather
TemperaturesReadingsPrecipitation
Current Temp36°C (97°F)
Dewpoint11°C (52°F)
Humidity22%
Altimeter29.73"Hg
Sea Level Pressure1007mb
Field Elevation13.12'
None Recorded

Additional weather within a 92.6km radius of OIAM

Location METAR
OIAG

54.4km E (067°)

1 hour, 39 minutes ago
OIAA

90.7km W (257°)

39 minutes ago
VFR VFR    MVFR MVFR    IFR IFR    LIFR LIFR    Unknown Unknown

Previous 24 hour Weather Graphs

  Loading...

CheckWX.com is intended as a tool to help pilots better visualize weather data.   It is not intended as a substitute for an official weather briefing obtained from a Flight Service Station.
CheckWX.com does not meet the FAA requirements for an official pre-flight weather briefing.   Therefore, it's important that pilots still call and obtain an official FSS pre-flight weather briefing.